Time;durP1;ratioP1;P1;durP2;ratioP2;P2;SDS_P1;SDS_P2;PMS_P1;PMS_P2;Temp;Humidity;BMP_temperature;BMP_pressure;BME280_temperature;BME280_humidity;BME280_pressure;Samples;Min_cycle;Max_cycle;Signal;HPM_P1;HPM_P2
2022/06/16 00:00:11;;;;;;;6.53;2.55;;;23.80;99.60;;;;;;5035887;28;20508;-78
2022/06/16 00:02:49;;;;;;;8.93;3.28;;;23.70;99.80;;;;;;5017484;28;20057;-78
2022/06/16 00:05:19;;;;;;;11.68;3.13;;;23.70;99.90;;;;;;5038754;28;20108;-78
2022/06/16 00:07:45;;;;;;;6.68;2.35;;;23.60;99.90;;;;;;5037289;28;20139;-78
2022/06/16 00:10:12;;;;;;;4.55;2.75;;;23.70;99.90;;;;;;5020629;28;20548;-78
2022/06/16 00:12:38;;;;;;;4.63;2.50;;;23.60;99.90;;;;;;5022661;28;20032;-78
2022/06/16 00:15:07;;;;;;;7.68;2.63;;;23.60;99.90;;;;;;5024981;28;20395;-78
2022/06/16 00:17:33;;;;;;;8.27;2.60;;;23.50;99.90;;;;;;5011348;28;20486;-78
2022/06/16 00:20:00;;;;;;;8.00;3.05;;;23.50;99.90;;;;;;5025260;28;20033;-78
2022/06/16 00:22:27;;;;;;;8.38;2.88;;;23.40;99.90;;;;;;5027474;28;20506;-78
2022/06/16 00:24:54;;;;;;;6.15;2.92;;;23.40;99.90;;;;;;5012441;28;20030;-78
2022/06/16 00:27:19;;;;;;;7.22;2.83;;;23.40;99.90;;;;;;5016225;28;20109;-78
2022/06/16 00:29:45;;;;;;;4.53;2.33;;;23.30;99.90;;;;;;5016566;28;20084;-78
2022/06/16 00:32:11;;;;;;;4.65;2.78;;;23.30;99.90;;;;;;5032434;28;20013;-78
2022/06/16 00:34:37;;;;;;;7.68;3.03;;;23.30;99.90;;;;;;5018968;28;20503;-78
2022/06/16 00:37:03;;;;;;;5.88;2.75;;;23.20;99.90;;;;;;5036380;28;20049;-78
2022/06/16 00:39:29;;;;;;;6.10;2.50;;;23.20;99.90;;;;;;5039137;28;20036;-78
2022/06/16 00:41:55;;;;;;;5.80;2.58;;;23.10;99.90;;;;;;5023215;28;20490;-78
2022/06/16 00:44:24;;;;;;;5.90;2.70;;;23.10;99.90;;;;;;5020441;28;20494;-78
2022/06/16 00:46:50;;;;;;;6.38;2.92;;;23.00;99.90;;;;;;5022905;28;20505;-78
2022/06/16 00:49:16;;;;;;;10.48;2.97;;;23.00;99.90;;;;;;5021973;28;20050;-78
2022/06/16 00:51:53;;;;;;;5.75;2.75;;;22.90;99.90;;;;;;5025696;28;20018;-78
2022/06/16 00:54:45;;;;;;;8.02;3.22;;;22.90;99.90;;;;;;5006382;28;20061;-78
2022/06/16 00:57:20;;;;;;;7.38;3.05;;;22.90;99.90;;;;;;5014586;28;20048;-78
2022/06/16 00:59:46;;;;;;;6.28;3.13;;;22.90;99.90;;;;;;5029184;28;20038;-78
2022/06/16 01:02:12;;;;;;;9.77;3.25;;;22.80;99.90;;;;;;5013699;28;20021;-78
2022/06/16 01:04:53;;;;;;;5.70;2.80;;;22.80;99.90;;;;;;5028580;28;20040;-78
2022/06/16 01:07:27;;;;;;;10.02;2.90;;;22.80;99.90;;;;;;5038720;28;20108;-79
2022/06/16 01:09:55;;;;;;;4.90;2.45;;;22.80;99.90;;;;;;5034841;28;20017;-78
2022/06/16 01:15:20;;;;;;;7.88;2.88;;;22.70;99.90;;;;;;5026275;28;20072;-78
2022/06/16 01:18:26;;;;;;;5.80;3.15;;;22.70;99.90;;;;;;5011562;28;20026;-78
2022/06/16 01:21:12;;;;;;;11.07;2.88;;;22.70;99.90;;;;;;5027809;28;20052;-78
2022/06/16 01:23:53;;;;;;;11.68;3.40;;;22.60;99.90;;;;;;5032786;28;20056;-78
2022/06/16 01:26:55;;;;;;;6.22;2.63;;;22.60;99.90;;;;;;5009353;28;20063;-78
2022/06/16 01:29:40;;;;;;;4.85;2.72;;;22.60;99.90;;;;;;5007573;28;20034;-79
2022/06/16 01:32:11;;;;;;;5.13;2.65;;;22.60;99.90;;;;;;5015493;28;20402;-78
2022/06/16 01:35:13;;;;;;;10.48;2.50;;;22.60;99.90;;;;;;5037021;28;20036;-78
2022/06/16 01:38:19;;;;;;;8.70;2.78;;;22.50;99.90;;;;;;4999720;28;20025;-78
2022/06/16 01:40:47;;;;;;;9.57;2.63;;;22.50;99.90;;;;;;5021649;28;20492;-78
2022/06/16 01:43:42;;;;;;;7.10;3.10;;;22.40;99.90;;;;;;5002743;28;20041;-78
2022/06/16 01:46:11;;;;;;;4.80;3.03;;;22.40;99.90;;;;;;5002911;28;20022;-78
2022/06/16 01:48:40;;;;;;;4.43;2.72;;;22.30;99.90;;;;;;5025489;28;20414;-78
2022/06/16 01:51:11;;;;;;;6.93;2.72;;;22.20;99.90;;;;;;5005307;28;20022;-78
2022/06/16 01:53:40;;;;;;;6.68;3.20;;;22.20;99.90;;;;;;5011669;28;20028;-78
2022/06/16 01:56:13;;;;;;;4.35;2.88;;;22.20;99.90;;;;;;5018751;28;20030;-78
2022/06/16 01:58:42;;;;;;;6.82;2.97;;;22.20;99.90;;;;;;5024741;28;20036;-78
2022/06/16 02:01:14;;;;;;;8.70;3.07;;;22.10;99.90;;;;;;5032876;28;20096;-78
2022/06/16 02:03:46;;;;;;;7.32;3.53;;;22.00;99.90;;;;;;5018907;28;20029;-78
2022/06/16 02:06:22;;;;;;;7.55;3.63;;;22.00;99.90;;;;;;5017072;28;20021;-78
2022/06/16 02:08:55;;;;;;;6.95;3.75;;;21.90;99.90;;;;;;5018412;28;20030;-78
2022/06/16 02:11:27;;;;;;;6.10;3.00;;;21.90;99.90;;;;;;5020721;28;20090;-78
2022/06/16 02:14:06;;;;;;;5.15;3.47;;;21.90;99.90;;;;;;5029377;28;20029;-78
2022/06/16 02:16:34;;;;;;;5.25;3.38;;;21.90;99.90;;;;;;5009840;28;20014;-78
2022/06/16 02:19:03;;;;;;;5.75;2.90;;;21.90;99.90;;;;;;5020864;28;20080;-78
2022/06/16 02:21:38;;;;;;;5.13;3.38;;;21.80;99.90;;;;;;5005881;28;20390;-78
2022/06/16 02:24:07;;;;;;;5.30;3.28;;;21.70;99.90;;;;;;5024891;28;20037;-78
2022/06/16 02:26:34;;;;;;;8.40;3.20;;;21.60;99.90;;;;;;5008169;28;20018;-78
2022/06/16 02:29:03;;;;;;;7.47;3.45;;;21.70;99.90;;;;;;5009442;28;20032;-78
2022/06/16 02:31:32;;;;;;;4.10;3.28;;;21.70;99.90;;;;;;5011250;28;20489;-78
2022/06/16 02:34:34;;;;;;;8.98;3.42;;;21.60;99.90;;;;;;5030473;28;20076;-78
2022/06/16 02:37:34;;;;;;;6.72;3.33;;;21.50;99.90;;;;;;5012293;28;20022;-78
2022/06/16 02:40:23;;;;;;;6.43;3.65;;;21.50;99.90;;;;;;5032880;28;20461;-78
2022/06/16 02:43:27;;;;;;;6.68;3.30;;;21.40;99.90;;;;;;5036442;28;20053;-78
2022/06/16 02:46:12;;;;;;;7.20;2.95;;;21.40;99.90;;;;;;4999626;28;20101;-78
2022/06/16 02:48:52;;;;;;;9.43;3.75;;;21.40;99.90;;;;;;5019679;28;20045;-78
2022/06/16 02:51:26;;;;;;;6.32;3.58;;;21.30;99.90;;;;;;5020397;28;20029;-78
2022/06/16 02:54:20;;;;;;;10.70;3.95;;;21.30;99.90;;;;;;5004488;28;20085;-78
2022/06/16 02:56:51;;;;;;;9.35;3.85;;;21.30;99.90;;;;;;5026127;28;20021;-78
2022/06/16 02:59:22;;;;;;;11.98;3.40;;;21.20;99.90;;;;;;5022645;28;20022;-78
2022/06/16 03:01:50;;;;;;;6.88;4.18;;;21.20;99.90;;;;;;5023459;28;20033;-78
2022/06/16 03:04:18;;;;;;;8.98;3.75;;;21.20;99.90;;;;;;5024840;28;20479;-78
2022/06/16 03:06:45;;;;;;;8.35;3.60;;;21.10;99.90;;;;;;5031631;28;20044;-78
2022/06/16 03:09:12;;;;;;;5.32;3.55;;;21.10;99.90;;;;;;5028077;28;20019;-78
2022/06/16 03:11:39;;;;;;;6.95;3.42;;;21.10;99.90;;;;;;5015622;28;20033;-78
2022/06/16 03:14:05;;;;;;;6.50;3.75;;;21.10;99.90;;;;;;5015931;28;20022;-78
2022/06/16 03:16:32;;;;;;;6.15;3.67;;;21.00;99.90;;;;;;5026710;28;20026;-78
2022/06/16 03:18:58;;;;;;;5.07;3.63;;;21.00;99.90;;;;;;5034137;28;20013;-78
2022/06/16 03:21:24;;;;;;;6.65;3.60;;;21.00;99.90;;;;;;5035434;28;20025;-78
2022/06/16 03:23:50;;;;;;;9.50;3.67;;;21.00;99.90;;;;;;5026023;28;20379;-78
2022/06/16 03:26:17;;;;;;;11.55;4.03;;;21.00;99.90;;;;;;5029305;28;20025;-78
2022/06/16 03:28:43;;;;;;;11.25;4.15;;;21.00;99.90;;;;;;5014595;28;20037;-78
2022/06/16 03:31:09;;;;;;;7.63;3.65;;;21.00;99.90;;;;;;5035086;28;20056;-78
2022/06/16 03:33:35;;;;;;;9.50;4.20;;;20.90;99.90;;;;;;5017899;28;20064;-78
2022/06/16 03:36:00;;;;;;;8.50;4.53;;;20.90;99.90;;;;;;5012726;28;20049;-78
2022/06/16 03:38:31;;;;;;;13.00;5.32;;;20.90;99.90;;;;;;5019519;28;20557;-78
2022/06/16 03:40:57;;;;;;;;;;;20.90;99.90;;;;;;5004039;28;20475;-78
2022/06/16 03:43:23;;;;;;;6.28;3.80;;;20.90;99.90;;;;;;5005158;28;19967;-78
2022/06/16 03:45:48;;;;;;;5.72;3.83;;;20.90;99.90;;;;;;5024974;28;20033;-78
2022/06/16 03:48:15;;;;;;;8.23;4.13;;;20.90;99.90;;;;;;5024850;28;20061;-78
2022/06/16 03:50:41;;;;;;;7.70;4.63;;;20.90;99.90;;;;;;5029566;28;20026;-77
2022/06/16 03:53:07;;;;;;;6.93;3.95;;;20.80;99.90;;;;;;5031858;28;20018;-78
2022/06/16 03:55:33;;;;;;;8.25;4.25;;;20.80;99.90;;;;;;5014683;28;20022;-78
2022/06/16 03:57:59;;;;;;;6.25;4.22;;;20.80;99.90;;;;;;5030121;28;20078;-78
2022/06/16 04:00:26;;;;;;;8.95;4.10;;;20.80;99.90;;;;;;5016871;28;20029;-78
2022/06/16 04:03:59;;;;;;;6.43;3.92;;;20.80;99.90;;;;;;5019795;28;20038;-78
2022/06/16 04:05:39;;;;;;;9.98;4.72;;;20.70;99.90;;;;;;5039239;28;20033;-78
2022/06/16 04:08:06;;;;;;;9.65;4.15;;;20.70;99.90;;;;;;5005048;28;20057;-78
2022/06/16 04:10:32;;;;;;;10.25;4.88;;;20.70;99.90;;;;;;5021406;28;20152;-78
2022/06/16 04:12:58;;;;;;;9.15;4.40;;;20.60;99.90;;;;;;5024469;28;20030;-77
2022/06/16 04:15:24;;;;;;;7.10;4.10;;;20.60;99.90;;;;;;5010523;28;20100;-78
2022/06/16 04:17:50;;;;;;;14.90;4.82;;;20.60;99.90;;;;;;5030171;28;20056;-77
2022/06/16 04:20:16;;;;;;;6.07;4.20;;;20.60;99.90;;;;;;5024875;28;20498;-78
2022/06/16 04:22:42;;;;;;;7.78;4.60;;;20.60;99.90;;;;;;5029501;28;20029;-78
2022/06/16 04:25:15;;;;;;;8.52;4.55;;;20.60;99.90;;;;;;5013736;28;20026;-78
2022/06/16 04:27:42;;;;;;;6.45;4.30;;;20.60;99.90;;;;;;5016863;28;20037;-78
2022/06/16 04:30:09;;;;;;;7.75;4.68;;;20.60;99.90;;;;;;5033019;28;20028;-77
2022/06/16 04:32:35;;;;;;;9.63;4.47;;;20.60;99.90;;;;;;5017316;28;20026;-78
2022/06/16 04:35:01;;;;;;;10.63;4.55;;;20.60;99.90;;;;;;5036751;28;20506;-78
2022/06/16 04:37:28;;;;;;;7.60;4.30;;;20.60;99.90;;;;;;5037369;28;20053;-78
2022/06/16 04:39:53;;;;;;;10.07;4.40;;;20.60;99.90;;;;;;5026783;28;20058;-77
2022/06/16 04:42:20;;;;;;;8.43;4.75;;;20.70;99.90;;;;;;5003550;28;20037;-78
2022/06/16 04:44:46;;;;;;;10.18;4.68;;;20.70;99.90;;;;;;5022077;28;20029;-77
2022/06/16 04:47:12;;;;;;;6.45;4.20;;;20.70;99.90;;;;;;5026235;28;20037;-78
2022/06/16 04:49:38;;;;;;;8.07;4.82;;;20.80;99.90;;;;;;5023507;28;20050;-77
2022/06/16 04:52:05;;;;;;;8.32;4.28;;;20.90;99.90;;;;;;5029523;28;20053;-78
2022/06/16 04:54:32;;;;;;;5.53;4.10;;;20.80;99.90;;;;;;5025140;28;20010;-78
2022/06/16 04:56:58;;;;;;;9.50;4.07;;;20.90;99.90;;;;;;5014491;28;20029;-78
2022/06/16 04:59:24;;;;;;;9.38;4.88;;;21.00;99.90;;;;;;5027537;28;20026;-78
2022/06/16 05:01:52;;;;;;;10.70;4.40;;;21.00;99.90;;;;;;5024995;28;20021;-78
2022/06/16 05:04:18;;;;;;;10.15;4.82;;;21.10;99.90;;;;;;5031602;28;20022;-77
2022/06/16 05:06:44;;;;;;;6.28;3.88;;;21.10;99.90;;;;;;5036220;28;20104;-77
2022/06/16 05:09:10;;;;;;;5.07;4.07;;;21.20;99.90;;;;;;5035432;28;20040;-78
2022/06/16 05:11:36;;;;;;;12.65;5.03;;;21.20;99.90;;;;;;5020136;28;20429;-78
2022/06/16 05:14:02;;;;;;;9.95;4.20;;;21.20;99.90;;;;;;5038106;28;20076;-78
2022/06/16 05:16:28;;;;;;;9.13;3.88;;;21.20;99.90;;;;;;5026952;28;20157;-78
2022/06/16 05:18:55;;;;;;;5.45;4.38;;;21.30;99.90;;;;;;5003636;28;20069;-78
2022/06/16 05:21:21;;;;;;;13.20;4.88;;;21.30;99.90;;;;;;5023775;28;20026;-77
2022/06/16 05:23:47;;;;;;;5.93;4.10;;;21.40;99.90;;;;;;5005284;28;20046;-77
2022/06/16 05:26:13;;;;;;;12.40;4.35;;;21.50;99.90;;;;;;5016318;28;20038;-77
2022/06/16 05:28:39;;;;;;;7.43;4.07;;;21.50;99.90;;;;;;5012599;28;20022;-77
2022/06/16 05:31:05;;;;;;;8.43;4.30;;;21.50;99.90;;;;;;5017204;28;20052;-77
2022/06/16 05:33:31;;;;;;;12.35;4.82;;;21.50;99.90;;;;;;5033808;28;20064;-77
2022/06/16 05:36:03;;;;;;;6.80;4.40;;;21.50;99.90;;;;;;5037947;28;20083;-77
2022/06/16 05:38:30;;;;;;;6.65;4.32;;;21.60;99.90;;;;;;5017921;28;20017;-76
2022/06/16 05:40:58;;;;;;;7.43;4.82;;;21.70;99.90;;;;;;5037950;28;20049;-77
2022/06/16 05:43:24;;;;;;;9.15;4.30;;;21.90;99.90;;;;;;5037482;28;20022;-77
2022/06/16 05:45:51;;;;;;;9.40;4.85;;;21.90;99.90;;;;;;5006071;28;20029;-77
2022/06/16 05:48:18;;;;;;;6.28;4.32;;;22.00;99.90;;;;;;5016055;28;20034;-76
2022/06/16 05:50:44;;;;;;;9.82;4.40;;;22.20;99.90;;;;;;5019757;28;20033;-76
2022/06/16 05:53:10;;;;;;;10.48;4.82;;;22.30;99.90;;;;;;5005698;28;20033;-77
2022/06/16 05:55:36;;;;;;;4.72;3.63;;;22.40;99.90;;;;;;5026544;28;20018;-78
2022/06/16 05:58:02;;;;;;;10.10;4.03;;;22.50;99.90;;;;;;5026785;28;20084;-78
2022/06/16 06:00:29;;;;;;;6.95;3.75;;;22.60;99.90;;;;;;5021638;28;20022;-77
2022/06/16 06:02:57;;;;;;;9.95;4.30;;;22.70;99.90;;;;;;5006102;28;20061;-78
2022/06/16 06:05:24;;;;;;;7.28;4.50;;;22.70;99.90;;;;;;5025291;28;20025;-77
2022/06/16 06:18:47;;;;;;;13.13;4.70;;;22.90;99.90;;;;;;5023905;28;20096;-77
2022/06/16 06:21:13;;;;;;;12.95;4.97;;;23.00;99.90;;;;;;5036087;28;20029;-77
2022/06/16 06:23:39;;;;;;;10.18;4.05;;;23.10;99.90;;;;;;5026497;28;20026;-77
2022/06/16 06:26:05;;;;;;;14.57;4.65;;;23.20;99.90;;;;;;5035579;28;20029;-78
2022/06/16 06:28:31;;;;;;;10.30;3.95;;;23.20;99.90;;;;;;5031396;28;20025;-77
2022/06/16 06:30:57;;;;;;;9.00;4.65;;;23.30;99.90;;;;;;5033222;28;20021;-77
2022/06/16 06:33:23;;;;;;;13.57;5.22;;;23.40;99.90;;;;;;5017701;28;20025;-78
2022/06/16 06:35:48;;;;;;;8.45;4.70;;;23.40;99.90;;;;;;5017588;28;20390;-78
2022/06/16 06:38:14;;;;;;;12.05;4.25;;;23.50;99.90;;;;;;5026094;28;20036;-77
2022/06/16 06:40:40;;;;;;;8.13;4.47;;;23.60;99.90;;;;;;5018610;28;20029;-77
2022/06/16 06:43:06;;;;;;;13.57;5.20;;;23.80;99.90;;;;;;5037194;28;20032;-78
2022/06/16 06:45:33;;;;;;;10.25;4.25;;;23.90;99.90;;;;;;5025671;28;20025;-78
2022/06/16 06:47:59;;;;;;;12.38;4.18;;;24.00;99.90;;;;;;5014644;28;20132;-79
2022/06/16 06:50:29;;;;;;;10.70;5.15;;;24.30;99.90;;;;;;5031746;28;20052;-80
2022/06/16 06:52:55;;;;;;;9.40;4.65;;;24.40;99.90;;;;;;5013502;28;20056;-80
2022/06/16 06:55:22;;;;;;;9.82;4.50;;;24.60;99.90;;;;;;5018698;28;20033;-79
2022/06/16 06:57:52;;;;;;;17.60;5.53;;;24.80;99.90;;;;;;5025257;28;20033;-80
2022/06/16 07:00:20;;;;;;;14.93;4.67;;;24.80;99.90;;;;;;5025524;28;20034;-80
2022/06/16 07:02:46;;;;;;;13.60;4.85;;;25.00;99.90;;;;;;5032055;28;20029;-79
2022/06/16 07:05:12;;;;;;;17.38;5.15;;;25.00;99.90;;;;;;5028886;28;20030;-79
2022/06/16 07:07:38;;;;;;;11.02;5.60;;;25.20;99.90;;;;;;5007747;28;20029;-79
2022/06/16 07:10:07;;;;;;;33.72;6.85;;;25.40;99.90;;;;;;5030206;28;20018;-80
2022/06/16 07:12:34;;;;;;;10.43;4.65;;;25.50;99.90;;;;;;5030545;28;20024;-79
2022/06/16 07:15:01;;;;;;;17.60;5.47;;;25.70;99.90;;;;;;5020238;28;20022;-78
2022/06/16 07:17:26;;;;;;;18.88;4.82;;;25.70;99.90;;;;;;5035872;28;20039;-78
2022/06/16 07:19:53;;;;;;;17.75;4.70;;;25.70;99.90;;;;;;5035009;28;20029;-80
2022/06/16 07:22:19;;;;;;;14.45;5.20;;;25.80;99.90;;;;;;5030473;28;20119;-80
2022/06/16 07:24:46;;;;;;;14.13;4.47;;;25.80;99.90;;;;;;5033245;28;20037;-79
2022/06/16 07:27:12;;;;;;;13.00;4.07;;;25.90;99.90;;;;;;5036042;28;20036;-79
2022/06/16 07:29:38;;;;;;;15.05;5.03;;;26.00;99.90;;;;;;5024259;28;20018;-79
2022/06/16 07:32:05;;;;;;;13.82;4.70;;;26.00;99.90;;;;;;5016231;28;20045;-78
2022/06/16 07:34:31;;;;;;;12.38;5.10;;;26.10;99.90;;;;;;5028772;28;20041;-78
2022/06/16 07:36:57;;;;;;;14.60;5.65;;;26.30;99.90;;;;;;5007597;28;20029;-78
2022/06/16 07:39:23;;;;;;;15.02;6.07;;;26.50;99.90;;;;;;5026541;28;20422;-78
2022/06/16 07:41:49;;;;;;;13.60;6.10;;;26.60;99.90;;;;;;5035078;28;20021;-79
2022/06/16 07:44:16;;;;;;;20.25;5.90;;;26.60;99.90;;;;;;5026336;28;20018;-78
2022/06/16 07:46:44;;;;;;;18.25;6.35;;;26.70;99.90;;;;;;5027547;28;20071;-77
2022/06/16 07:49:19;;;;;;;17.63;6.10;;;26.70;99.90;;;;;;5037241;28;20128;-77
2022/06/16 07:51:45;;;;;;;15.45;6.65;;;26.80;99.90;;;;;;5005959;28;20041;-77
2022/06/16 07:54:12;;;;;;;14.15;6.00;;;27.00;99.90;;;;;;5023551;28;20018;-78
2022/06/16 07:56:38;;;;;;;13.77;5.55;;;27.10;99.90;;;;;;5033902;28;20010;-77
2022/06/16 07:59:04;;;;;;;18.75;5.63;;;27.30;99.90;;;;;;5038493;28;20037;-77
2022/06/16 08:01:30;;;;;;;19.33;5.78;;;27.40;99.90;;;;;;5032714;28;20438;-77
2022/06/16 08:03:56;;;;;;;12.52;5.18;;;27.50;99.90;;;;;;5022525;28;20022;-77
2022/06/16 08:06:27;;;;;;;13.48;4.63;;;27.70;99.90;;;;;;5034831;28;20025;-78
2022/06/16 08:08:54;;;;;;;20.38;5.93;;;27.90;99.90;;;;;;5016748;28;20025;-78
2022/06/16 08:14:04;;;;;;;17.17;5.95;;;28.00;99.90;;;;;;5037917;28;20032;-77
2022/06/16 08:16:33;;;;;;;18.88;6.07;;;28.00;99.90;;;;;;5020875;28;20117;-78
2022/06/16 08:19:03;;;;;;;22.33;6.13;;;28.00;99.90;;;;;;5008687;28;20049;-77
2022/06/16 08:21:28;;;;;;;20.83;5.90;;;28.10;99.90;;;;;;5021312;28;20034;-78
2022/06/16 08:23:55;;;;;;;24.83;6.45;;;28.20;99.90;;;;;;5005229;28;20556;-77
2022/06/16 08:26:21;;;;;;;16.08;6.07;;;28.30;99.90;;;;;;5024826;28;20053;-78
2022/06/16 08:28:50;;;;;;;24.98;6.18;;;28.30;99.90;;;;;;5007065;28;20045;-77
2022/06/16 08:31:17;;;;;;;17.35;6.05;;;28.40;99.90;;;;;;5019123;28;20089;-77
2022/06/16 08:33:43;;;;;;;19.10;6.13;;;28.70;99.90;;;;;;5035519;28;20029;-77
2022/06/16 08:36:09;;;;;;;23.17;6.05;;;28.70;99.90;;;;;;5037685;28;20445;-76
2022/06/16 08:38:35;;;;;;;16.15;6.13;;;28.70;99.90;;;;;;5038220;28;20052;-76
2022/06/16 08:41:12;;;;;;;24.63;5.68;;;28.70;99.90;;;;;;5032945;28;20025;-76
2022/06/16 08:43:50;;;;;;;15.60;5.57;;;28.90;99.90;;;;;;5032004;28;20029;-77
2022/06/16 08:46:18;;;;;;;11.93;5.60;;;29.10;99.90;;;;;;5034329;28;20049;-76
2022/06/16 08:48:50;;;;;;;21.27;7.30;;;29.30;99.90;;;;;;5037096;28;20056;-77
2022/06/16 08:51:32;;;;;;;18.23;6.38;;;29.50;99.90;;;;;;5037464;28;20032;-77
2022/06/16 08:54:22;;;;;;;12.70;5.18;;;29.60;99.90;;;;;;5029543;28;20073;-76
2022/06/16 08:56:57;;;;;;;17.50;6.78;;;29.60;99.90;;;;;;5024229;28;20025;-75
2022/06/16 08:59:41;;;;;;;17.05;6.07;;;29.60;99.90;;;;;;5035761;28;20459;-77
2022/06/16 09:02:41;;;;;;;21.08;5.63;;;29.80;99.90;;;;;;5027646;28;20036;-77
2022/06/16 09:05:24;;;;;;;17.52;6.05;;;30.00;99.90;;;;;;5032151;28;20036;-77
2022/06/16 09:08:12;;;;;;;14.00;6.18;;;30.30;99.90;;;;;;5035601;28;20021;-78
2022/06/16 09:10:54;;;;;;;19.85;5.82;;;30.60;99.80;;;;;;5037532;28;20028;-77
2022/06/16 09:13:42;;;;;;;21.17;5.22;;;30.80;98.00;;;;;;5005989;28;20026;-76
2022/06/16 09:16:11;;;;;;;23.85;6.43;;;30.80;98.10;;;;;;5018155;28;20013;-75
2022/06/16 09:19:06;;;;;;;19.20;5.75;;;30.80;97.50;;;;;;5037242;28;20446;-78
2022/06/16 09:22:09;;;;;;;21.00;6.55;;;30.80;98.40;;;;;;5018809;28;20439;-79
2022/06/16 09:24:59;;;;;;;17.77;5.30;;;31.00;98.60;;;;;;5031945;28;20037;-79
2022/06/16 09:27:42;;;;;;;31.98;6.00;;;31.20;96.70;;;;;;5029036;28;20064;-78
2022/06/16 09:30:21;;;;;;;20.00;5.72;;;31.10;95.50;;;;;;5035938;28;20072;-79
2022/06/16 09:33:20;;;;;;;19.05;6.85;;;31.10;94.70;;;;;;5033651;28;20025;-80
2022/06/16 09:35:52;;;;;;;19.60;4.90;;;31.20;95.10;;;;;;5024524;28;20022;-79
2022/06/16 09:38:46;;;;;;;18.35;4.80;;;31.40;94.50;;;;;;5033122;28;20022;-77
2022/06/16 09:44:28;;;;;;;17.27;5.28;;;31.60;89.70;;;;;;5026039;28;20040;-77
2022/06/16 09:46:59;;;;;;;16.55;4.47;;;31.80;91.20;;;;;;5031556;28;20025;-76
2022/06/16 09:49:37;;;;;;;24.73;5.38;;;32.00;92.70;;;;;;5017281;28;20071;-76
2022/06/16 09:52:18;;;;;;;20.63;5.07;;;32.20;91.80;;;;;;5018303;28;20231;-76
2022/06/16 09:54:45;;;;;;;;;;;32.10;88.80;;;;;;5032383;28;20022;-77
2022/06/16 09:57:16;;;;;;;20.58;5.85;;;32.10;87.80;;;;;;5033386;28;19940;-75
2022/06/16 09:59:54;;;;;;;14.68;4.50;;;32.20;91.20;;;;;;5012430;28;20394;-75
2022/06/16 10:02:23;;;;;;;23.35;5.25;;;32.40;90.10;;;;;;5034825;28;20490;-75
2022/06/16 10:04:51;;;;;;;13.83;4.57;;;32.60;90.20;;;;;;5017189;28;20029;-76
2022/06/16 10:08:00;;;;;;;13.13;5.20;;;32.70;89.30;;;;;;5019085;28;20034;-76
2022/06/16 10:11:02;;;;;;;21.90;4.85;;;32.80;86.90;;;;;;5009044;28;20025;-77
2022/06/16 10:13:36;;;;;;;12.88;4.85;;;33.30;87.40;;;;;;4986927;28;20037;-79
2022/06/16 10:16:11;;;;;;;13.90;5.10;;;33.50;84.90;;;;;;5033521;28;20037;-75
2022/06/16 10:18:37;;;;;;;14.00;4.43;;;33.40;84.70;;;;;;5013412;28;20030;-77
2022/06/16 10:21:07;;;;;;;16.65;5.07;;;33.30;84.10;;;;;;5029905;28;20536;-77
2022/06/16 10:23:47;;;;;;;15.38;5.05;;;33.20;82.40;;;;;;5033260;28;20044;-80
2022/06/16 10:26:13;;;;;;;14.65;4.95;;;33.40;85.00;;;;;;5024386;28;20037;-79
2022/06/16 10:29:03;;;;;;;14.57;5.03;;;33.50;81.00;;;;;;5036219;28;20112;-79
2022/06/16 10:31:38;;;;;;;14.50;4.53;;;33.60;81.80;;;;;;5018349;28;20021;-79
2022/06/16 10:34:16;;;;;;;17.35;5.28;;;33.80;82.20;;;;;;5033891;28;20075;-79
2022/06/16 10:36:57;;;;;;;17.27;4.85;;;33.90;79.90;;;;;;5018434;28;20013;-78
2022/06/16 10:39:33;;;;;;;17.55;4.65;;;34.10;81.60;;;;;;5016818;28;20032;-80
2022/06/16 10:42:05;;;;;;;10.75;5.20;;;34.20;79.20;;;;;;5036244;28;20010;-78
2022/06/16 10:44:33;;;;;;;12.45;4.38;;;34.30;77.80;;;;;;5033499;28;20123;-79
2022/06/16 10:47:02;;;;;;;10.57;4.95;;;34.40;77.60;;;;;;5006750;28;20030;-79
2022/06/16 10:49:34;;;;;;;13.63;4.53;;;34.50;78.40;;;;;;5031112;28;20052;-79
2022/06/16 10:52:14;;;;;;;17.05;5.18;;;34.50;76.70;;;;;;5036320;28;20051;-79
2022/06/16 10:54:54;;;;;;;17.43;3.97;;;34.40;74.30;;;;;;5025926;28;20029;-79
2022/06/16 10:57:24;;;;;;;;;;;34.50;73.20;;;;;;5035720;28;20031;-79
2022/06/16 11:00:18;;;;;;;20.23;5.13;;;34.50;74.00;;;;;;5032489;28;20439;-79
2022/06/16 11:02:54;;;;;;;15.77;4.13;;;34.80;70.50;;;;;;5016734;28;20049;-76
2022/06/16 11:05:20;;;;;;;14.35;4.75;;;34.80;71.20;;;;;;5001685;28;20029;-78
2022/06/16 11:07:46;;;;;;;14.73;4.88;;;34.80;71.00;;;;;;5022276;28;20455;-76
2022/06/16 11:10:17;;;;;;;9.60;4.68;;;34.70;69.90;;;;;;5030366;28;20049;-76
2022/06/16 11:12:47;;;;;;;19.92;4.75;;;34.60;70.00;;;;;;5024151;28;20025;-76
2022/06/16 11:15:25;;;;;;;;;;;34.60;70.90;;;;;;5027708;28;20055;-77
2022/06/16 11:17:56;;;;;;;17.13;4.32;;;34.80;69.70;;;;;;5028977;28;19955;-76
2022/06/16 11:20:36;;;;;;;10.77;4.00;;;34.80;71.40;;;;;;5007617;28;20022;-76
2022/06/16 11:23:20;;;;;;;8.80;3.97;;;34.60;69.50;;;;;;5015681;28;20025;-78
2022/06/16 11:25:46;;;;;;;21.23;4.18;;;34.80;68.60;;;;;;5037664;28;20084;-78
2022/06/16 11:28:19;;;;;;;11.65;4.10;;;34.60;66.60;;;;;;5035690;28;20402;-77
2022/06/16 11:30:47;;;;;;;13.82;3.97;;;34.80;65.50;;;;;;5039418;28;20025;-77
2022/06/16 11:36:46;;;;;;;13.00;4.18;;;34.80;63.70;;;;;;5039247;28;20040;-78
2022/06/16 11:39:22;;;;;;;14.60;3.38;;;34.80;65.30;;;;;;5025765;28;20122;-78
2022/06/16 11:41:54;;;;;;;15.35;3.65;;;34.80;62.00;;;;;;5039567;28;20018;-78
2022/06/16 11:44:20;;;;;;;15.48;4.88;;;34.90;62.80;;;;;;5037308;28;20032;-78
2022/06/16 11:46:57;;;;;;;15.80;5.38;;;35.20;65.40;;;;;;5021276;28;20017;-78
2022/06/16 11:49:38;;;;;;;14.68;5.15;;;35.30;65.70;;;;;;5039369;28;20101;-79
2022/06/16 11:52:13;;;;;;;17.50;4.55;;;35.50;65.00;;;;;;5037054;28;20032;-77
2022/06/16 11:55:06;;;;;;;12.27;3.83;;;35.30;61.00;;;;;;5020685;28;20024;-75
2022/06/16 11:58:07;;;;;;;19.73;4.30;;;35.30;62.80;;;;;;5039139;28;20026;-76
2022/06/16 12:00:43;;;;;;;15.02;4.32;;;35.50;64.30;;;;;;5018926;28;20022;-76
2022/06/16 12:03:26;;;;;;;11.05;4.03;;;35.60;62.00;;;;;;5039096;28;20032;-75
2022/06/16 12:06:15;;;;;;;18.00;4.03;;;35.60;60.60;;;;;;5021693;28;20018;-73
2022/06/16 12:08:56;;;;;;;14.57;4.13;;;35.00;58.60;;;;;;4990010;28;20045;-76
2022/06/16 12:11:54;;;;;;;17.00;4.07;;;34.80;59.30;;;;;;5021103;28;20022;-76
2022/06/16 12:14:34;;;;;;;13.68;4.13;;;34.80;61.40;;;;;;5020974;28;20025;-76
2022/06/16 12:17:15;;;;;;;13.10;4.32;;;35.10;62.00;;;;;;5020695;28;20124;-76
2022/06/16 12:19:55;;;;;;;14.93;3.95;;;35.40;62.30;;;;;;5020813;28;20036;-74
2022/06/16 12:22:32;;;;;;;10.82;3.67;;;35.60;63.50;;;;;;5037865;28;20028;-73
2022/06/16 12:25:05;;;;;;;11.70;3.75;;;35.80;61.30;;;;;;5038570;28;20414;-74
2022/06/16 12:28:04;;;;;;;14.40;3.60;;;36.00;61.40;;;;;;5038537;28;20017;-74
2022/06/16 12:30:45;;;;;;;15.35;4.22;;;36.30;63.60;;;;;;5037614;28;20112;-75
2022/06/16 12:33:26;;;;;;;13.90;3.75;;;36.50;60.00;;;;;;5019266;28;20025;-74
2022/06/16 12:36:11;;;;;;;13.10;4.38;;;36.60;57.40;;;;;;5038523;28;20081;-74
2022/06/16 12:38:50;;;;;;;10.48;3.88;;;36.50;56.80;;;;;;5038515;28;20069;-74
2022/06/16 12:41:48;;;;;;;15.98;4.43;;;36.50;59.20;;;;;;5038466;28;20049;-74
2022/06/16 12:44:49;;;;;;;13.25;3.58;;;36.40;59.00;;;;;;5018883;28;20124;-75
2022/06/16 12:47:33;;;;;;;12.77;4.03;;;36.50;57.80;;;;;;5020254;28;20056;-73
2022/06/16 12:50:13;;;;;;;10.85;3.58;;;36.50;58.40;;;;;;5038276;28;20038;-75
2022/06/16 12:52:42;;;;;;;11.05;4.22;;;36.60;58.80;;;;;;5038401;28;20013;-75
2022/06/16 12:55:21;;;;;;;11.88;3.58;;;36.60;58.00;;;;;;5037524;28;20053;-75
2022/06/16 12:57:57;;;;;;;17.80;4.15;;;36.40;57.90;;;;;;5032221;28;20096;-75
2022/06/16 13:00:27;;;;;;;13.52;3.75;;;36.60;57.70;;;;;;5029567;28;20033;-75
2022/06/16 13:03:00;;;;;;;;;;;36.80;57.70;;;;;;5023088;28;20021;-74
2022/06/16 13:05:28;;;;;;;11.13;4.00;;;37.10;55.80;;;;;;5025684;28;19914;-75
2022/06/16 13:07:56;;;;;;;18.60;3.65;;;37.00;56.10;;;;;;5038311;28;20100;-75
2022/06/16 13:10:23;;;;;;;19.75;4.57;;;36.80;56.80;;;;;;5017087;28;20388;-76
2022/06/16 13:12:59;;;;;;;15.15;4.95;;;36.80;54.60;;;;;;5036741;28;20024;-74
2022/06/16 13:15:33;;;;;;;13.32;4.00;;;36.70;55.40;;;;;;5037310;28;20025;-75
2022/06/16 13:18:07;;;;;;;16.52;3.75;;;36.60;55.20;;;;;;5037875;28;20053;-75
2022/06/16 13:20:33;;;;;;;26.55;4.43;;;36.60;55.80;;;;;;5020252;28;20026;-75
2022/06/16 13:23:08;;;;;;;15.10;3.88;;;36.50;56.60;;;;;;5004694;28;20029;-76
2022/06/16 13:25:54;;;;;;;11.13;3.75;;;36.60;55.00;;;;;;5025064;28;20084;-76
2022/06/16 13:28:32;;;;;;;11.13;3.97;;;36.70;56.80;;;;;;5024931;28;20117;-75
2022/06/16 13:31:22;;;;;;;12.02;3.80;;;36.90;56.60;;;;;;5023658;28;20026;-75
2022/06/16 13:34:13;;;;;;;15.23;3.90;;;37.20;55.70;;;;;;5033939;28;20033;-74